Watkins, CO

1:13 PM MDT on August 25, 2016 (GMT -0600)
Front Range | | Change Station

Elev 5512 ft 39.79 °N, 104.54 °W | Updated 25 minutes ago

Haze
Haze
70 °F
Feels Like 70 °F
N
4
Wind Variable Wind from SSE

Today
High -- | Low -- °F
--% Chance of Precip.
Yesterday
High -- | Low -- °F
Precip. -- in
Pressure 30.27 in
Visibility 7.0 miles
Clouds Scattered Clouds 3000 ft
Scattered Clouds 12000 ft
Scattered Clouds 20000 ft
Dew Point 46 °F
Humidity 43%
Rainfall 0.00 in
Snow Depth Not available.
6:20 AM 7:39 PM
Last Quarter, 43% visible
METAR KFTG 251848Z 16003KT 7SM HZ SCT030 SCT120 SCT200 21/08 A3027
Pressure 30.27 in
Visibility 7.0 miles
Clouds Scattered Clouds 3000 ft
Scattered Clouds 12000 ft
Scattered Clouds 20000 ft
Dew Point 46 °F
Humidity 43%
Rainfall 0.00 in
Snow Depth Not available.
6:20 AM 7:39 PM
Last Quarter, 43% visible
METAR KFTG 251848Z 16003KT 7SM HZ SCT030 SCT120 SCT200 21/08 A3027
A tropical disturbance pushing toward the Bahamas, is expected to develop into a tropical depression or storm, and will likely target Florida and the Gulf Coast this weekend into next week.

Right now, the disturbance remains a broad area of low pressure pushing through the Dominican Republic and Haiti, headed toward the southeast Bahamas. Rainfall totals over 3 inches (with locally higher amounts) are expected in HispaƱiola, particularly over elevated terrain.

10-Day Weather Forecast

Almanac

Astronomy

Aug. 25, 2016 Rise Set
Actual Time
Civil Twilight
Nautical Twilight
Astronomical Twilight
Moon
Length of Visible Light
Length of Day
Tomorrow will be .
, % of the Moon is Illuminated

Today's Extremes

State Highs State Lows

Community

WunderPhotos

Upload Photos

1,934,907 photos uploaded!

WunderBlog® & News

Nearby

Air Quality

  Air Quality AQ Index Pollutant
Not available.

Snow Depth

Station Depth Elevation

Earthquake Activity

City Distance Mag. Time & Date
Minimum magnitude displayed is 2.5.

Coastal Water Temperatures

Place Temperature

Stations

Nearby Weather Stations

Station Location Temp. Windchill Dew Point Humidity Wind Precip. Elev Updated Type
                   

Watches & Warnings

There are currently no watches in effect.